AZU8431 SBBR-SACO
Flight info
| Callsign | AZU8431 |
|---|---|
| Flight time | N/A |
| Altitude | FL340 |
| Route | UMSU1A SIREM UM403 VAS UM529 ARPAS UZ124 SIS UL531 TREJO TREJ1U |
| Aircraft | A20N/M-VGDW/C |
Departure
| Time | 2026-05-05 14:51 |
|---|---|
| Airport | Presidente Juscelino Kubitschek International Airport (SBBR) |
Arrival
| Time | N/A |
|---|---|
| Airport | Ingeniero Aeronáutico Ambrosio L.V. Taravella International Airport (SACO) |
| Time | Latitude | Longitude | Altitude | Speed | Heading |
|---|---|---|---|---|---|
| 2026-05-05 14:50 | -15.88065 | -47.93972 | 3490 ft | 0 kts | 86° |
| 2026-05-05 14:50 | -15.88065 | -47.93963 | 3490 ft | 9 kts | 86° |
| 2026-05-05 14:50 | -15.88048 | -47.93693 | 3490 ft | 68 kts | 85° |
| 2026-05-05 14:50 | -15.88004 | -47.93002 | 3491 ft | 122 kts | 86° |
| 2026-05-05 14:51 | -15.87947 | -47.91984 | 3577 ft | 155 kts | 88° |
| 2026-05-05 14:51 | -15.87839 | -47.90777 | 3904 ft | 181 kts | 84° |
| 2026-05-05 14:51 | -15.87656 | -47.89431 | 4494 ft | 192 kts | 87° |
| 2026-05-05 14:51 | -15.87837 | -47.88069 | 5005 ft | 197 kts | 109° |
| 2026-05-05 14:52 | -15.88735 | -47.86842 | 4714 ft | 239 kts | 138° |
| 2026-05-05 14:52 | -15.90371 | -47.86061 | 3943 ft | 281 kts | 168° |
| 2026-05-05 14:52 | -15.92213 | -47.86141 | 4521 ft | 256 kts | 186° |
| 2026-05-05 14:52 | -15.93992 | -47.86473 | 4906 ft | 267 kts | 189° |
| 2026-05-05 14:53 | -15.95867 | -47.86774 | 5287 ft | 277 kts | 185° |
| 2026-05-05 14:53 | -15.97807 | -47.86850 | 5664 ft | 284 kts | 178° |
| 2026-05-05 14:53 | -15.99799 | -47.86668 | 6046 ft | 290 kts | 171° |
| 2026-05-05 14:53 | -16.01791 | -47.86264 | 6427 ft | 295 kts | 165° |
| 2026-05-05 14:54 | -16.03783 | -47.85718 | 6799 ft | 301 kts | 165° |
| 2026-05-05 14:54 | -16.05887 | -47.85689 | 7157 ft | 309 kts | 188° |
| 2026-05-05 14:54 | -16.07877 | -47.86564 | 7538 ft | 318 kts | 211° |
| 2026-05-05 14:54 | -16.09419 | -47.88221 | 7916 ft | 325 kts | 234° |
| 2026-05-05 14:55 | -16.10251 | -47.90418 | 8297 ft | 331 kts | 257° |
| 2026-05-05 14:55 | -16.10225 | -47.92805 | 8675 ft | 336 kts | 280° |
| 2026-05-05 14:55 | -16.09442 | -47.95106 | 9079 ft | 341 kts | 292° |
| 2026-05-05 14:55 | -16.08894 | -47.97473 | 9418 ft | 340 kts | 274° |
| 2026-05-05 14:56 | -16.09113 | -47.99923 | 9807 ft | 342 kts | 258° |
| 2026-05-05 14:56 | -16.09822 | -48.02279 | 10191 ft | 343 kts | 248° |
| 2026-05-05 14:56 | -16.10817 | -48.04532 | 10573 ft | 344 kts | 242° |
| 2026-05-05 14:56 | -16.11974 | -48.06707 | 10950 ft | 344 kts | 238° |
| 2026-05-05 14:57 | -16.13203 | -48.08841 | 11327 ft | 345 kts | 237° |
| 2026-05-05 14:57 | -16.14418 | -48.10980 | 11702 ft | 346 kts | 238° |
| 2026-05-05 14:57 | -16.15623 | -48.13150 | 12076 ft | 347 kts | 238° |
| 2026-05-05 14:57 | -16.16814 | -48.15335 | 12452 ft | 348 kts | 239° |
| 2026-05-05 14:58 | -16.17997 | -48.17533 | 12827 ft | 349 kts | 239° |
| 2026-05-05 14:58 | -16.19172 | -48.19740 | 13202 ft | 351 kts | 239° |
| 2026-05-05 14:58 | -16.20347 | -48.21965 | 13578 ft | 352 kts | 239° |
| 2026-05-05 14:58 | -16.21523 | -48.24202 | 13952 ft | 353 kts | 240° |
| 2026-05-05 14:59 | -16.22734 | -48.26411 | 14327 ft | 354 kts | 237° |
| 2026-05-05 14:59 | -16.24122 | -48.28525 | 14706 ft | 355 kts | 232° |
| 2026-05-05 14:59 | -16.25626 | -48.30560 | 15083 ft | 356 kts | 230° |
| 2026-05-05 14:59 | -16.27203 | -48.32547 | 15461 ft | 357 kts | 228° |
| 2026-05-05 15:00 | -16.28823 | -48.34505 | 15836 ft | 358 kts | 227° |
| 2026-05-05 15:00 | -16.29914 | -48.35795 | 16087 ft | 358 kts | 227° |
| 2026-05-05 15:00 | -16.32130 | -48.38375 | 16587 ft | 360 kts | 226° |
| 2026-05-05 15:00 | -16.33807 | -48.40307 | 16962 ft | 361 kts | 226° |
| 2026-05-05 15:01 | -16.35491 | -48.42240 | 17337 ft | 362 kts | 226° |
| 2026-05-05 15:01 | -16.37181 | -48.44174 | 17711 ft | 362 kts | 226° |
| 2026-05-05 15:01 | -16.38876 | -48.46114 | 18086 ft | 363 kts | 226° |
| 2026-05-05 15:01 | -16.40566 | -48.48048 | 18459 ft | 363 kts | 226° |
| 2026-05-05 15:02 | -16.42266 | -48.49994 | 18834 ft | 364 kts | 226° |
| 2026-05-05 15:02 | -16.43963 | -48.51938 | 19207 ft | 364 kts | 226° |
| 2026-05-05 15:02 | -16.45665 | -48.53888 | 19581 ft | 364 kts | 226° |
| 2026-05-05 15:02 | -16.47364 | -48.55838 | 19956 ft | 364 kts | 226° |
| 2026-05-05 15:03 | -16.49063 | -48.57786 | 20330 ft | 363 kts | 226° |
| 2026-05-05 15:03 | -16.52445 | -48.61659 | 21077 ft | 362 kts | 225° |
| 2026-05-05 15:03 | -16.54197 | -48.63537 | 21456 ft | 361 kts | 223° |
| 2026-05-05 15:04 | -16.55994 | -48.65363 | 21833 ft | 361 kts | 222° |
| 2026-05-05 15:04 | -16.57811 | -48.67151 | 22207 ft | 361 kts | 221° |
| 2026-05-05 15:04 | -16.59655 | -48.68929 | 22583 ft | 362 kts | 221° |
| 2026-05-05 15:04 | -16.61510 | -48.70698 | 22958 ft | 362 kts | 221° |
| 2026-05-05 15:05 | -16.65301 | -48.74280 | 23279 ft | 378 kts | 221° |
| 2026-05-05 15:05 | -16.67279 | -48.76141 | 23299 ft | 389 kts | 221° |
| 2026-05-05 15:05 | -16.69305 | -48.78046 | 23295 ft | 396 kts | 221° |
| 2026-05-05 15:06 | -16.71350 | -48.79969 | 23291 ft | 400 kts | 221° |
| 2026-05-05 15:06 | -16.73423 | -48.81919 | 23289 ft | 403 kts | 221° |
| 2026-05-05 15:06 | -16.75510 | -48.83884 | 23287 ft | 405 kts | 221° |
| 2026-05-05 15:06 | -16.77603 | -48.85855 | 23286 ft | 406 kts | 221° |
| 2026-05-05 15:07 | -16.79691 | -48.87823 | 23284 ft | 407 kts | 221° |
| 2026-05-05 15:07 | -16.81792 | -48.89804 | 23282 ft | 407 kts | 221° |
| 2026-05-05 15:07 | -16.83893 | -48.91786 | 23281 ft | 408 kts | 221° |
| 2026-05-05 15:07 | -16.85986 | -48.93762 | 23281 ft | 408 kts | 221° |
| 2026-05-05 15:08 | -16.88088 | -48.95747 | 23281 ft | 408 kts | 221° |
| 2026-05-05 15:08 | -16.90193 | -48.97728 | 23283 ft | 408 kts | 221° |
| 2026-05-05 15:08 | -16.92304 | -48.99706 | 23282 ft | 408 kts | 220° |
| 2026-05-05 15:08 | -16.93703 | -49.01014 | 23279 ft | 408 kts | 220° |